Latest Coastal Weather Observations for Moruya Airport

IDN60701

Issued at 4:15 pm EST Thursday 21 August 2014 (issued every 10 minutes, with the page automatically refreshed every 10 minutes)

About coastal observations | Map of coastal stations | Coastal observations for NSW | Marine services | Other Formats
Station Details ID: 069148 Name: MORUYA AIRPORT AWS Lat: -35.90 Lon: 150.14 Height: 4.0 m
Data from the previous 72 hours. | See also: Recent months for locations in New South Wales
Date/Time
EST
Temp

°C
Wind Pressure Rain
since 9am
mm
Weather Cloud Vis
km
Sea
Height
m
Swell
Dir
 
Speed
knots
Gust
knots
hPa Trend Height
m
Period
s
Dir
21/04:00pm 15.4 SSE 7 9 1029.2 - 0.0 - Partly cloudy 10 - - - -
21/03:30pm 14.8 SSE 7 9 1029.2 - 0.0 - Partly cloudy 10 - - - -
21/03:00pm 15.4 S 6 8 1029.2 - 0.0 - Mostly cloudy 10 - - - -
21/02:30pm 15.3 S 4 7 1029.3 - 0.0 - Partly cloudy 10 - - - -
21/02:00pm 15.7 WSW 5 9 1029.4 - 0.0 - Partly cloudy 10 - - - -
21/01:30pm 14.5 SW 7 9 1029.6 - 0.0 - Partly cloudy 10 - - - -
21/01:00pm 14.3 SW 6 9 1030.0 - 0.0 - Partly cloudy 10 - - - -
21/12:30pm 13.9 WSW 6 9 1030.2 - 0.0 - Partly cloudy 10 - - - -
21/12:00pm 14.0 SW 9 11 1030.5 - 0.0 - Partly cloudy 10 - - - -
21/11:30am 14.5 SW 8 10 1030.7 - 0.0 - Partly cloudy 10 - - - -
21/11:00am 13.6 W 4 7 1030.9 - 0.0 - Partly cloudy 10 - - - -
21/10:30am 13.2 SW 8 11 1030.9 - 0.0 - Partly cloudy 10 - - - -
21/10:00am 12.4 WSW 2 5 1031.0 - 0.0 - Partly cloudy 10 - - - -
21/09:30am 11.5 W 5 7 1030.8 - 0.0 - Partly cloudy 10 - - - -
21/09:00am 11.1 WSW 5 8 1030.8 - 0.2 Recent precip. Mostly cloudy 10 - - - -
21/08:30am 9.7 W 5 6 1030.8 - 0.2 - Partly cloudy 8 - - - -
21/08:00am 9.4 WSW 3 5 1030.6 - 0.0 - Partly cloudy 10 - - - -
21/07:30am 9.0 WSW 6 9 1030.2 - 0.0 - Cloudy 10 - - - -
21/07:00am 8.5 SW 5 7 1029.9 - 0.0 - Cloudy 10 - - - -
21/06:30am 8.2 WSW 5 6 1029.5 - 0.0 - Partly cloudy 10 - - - -
21/06:00am 8.1 W 5 7 1029.1 - 0.0 - Cloudy 10 - - - -
21/05:30am 8.0 W 5 7 1029.0 - 0.0 - Partly cloudy 10 - - - -
21/05:00am 7.8 WSW 5 7 1028.8 - 0.0 - Cloudy 10 - - - -
21/04:30am 7.7 WSW 5 8 1028.6 - 0.0 - Cloudy 10 - - - -
21/04:00am 7.5 W 6 8 1028.5 - 0.0 - Partly cloudy 10 - - - -
21/03:30am 6.9 WSW 6 8 1028.4 - 0.0 - Partly cloudy 10 - - - -
21/03:00am 6.6 WSW 5 8 1028.2 - 0.0 - - 10 - - - -
21/02:30am 6.6 WSW 5 7 1028.3 - 0.0 - - 10 - - - -
21/02:00am 6.2 W 6 7 1028.5 - 0.0 - - 10 - - - -
21/01:30am 5.9 WSW 5 7 1028.5 - 0.0 - - 10 - - - -
21/01:00am 5.8 WSW 3 4 1028.5 - 0.0 - - 10 - - - -
21/12:30am 6.1 WSW 3 4 1028.5 - 0.0 - - 10 - - - -
21/12:00am 6.7 W 4 6 1028.5 - 0.0 - - 10 - - - -
 
Date/Time
EST
Temp

°C
Wind Pressure Rain
since 9am
mm
Weather Cloud Vis
km
Sea
Height
m
Swell
Dir
 
Speed
knots
Gust
knots
hPa Trend Height
m
Period
s
Dir
20/11:30pm 7.4 W 5 7 1028.4 - 0.0 - - 10 - - - -
20/11:00pm 7.7 W 5 7 1028.5 - 0.0 - - 10 - - - -
20/10:30pm 7.4 W 4 6 1028.4 - 0.0 - - 10 - - - -
20/10:00pm 7.0 W 4 6 1028.3 - 0.0 - - 10 - - - -
20/09:30pm 7.0 W 4 5 1028.3 - 0.0 - - 10 - - - -
20/09:00pm 7.4 W 2 4 1028.3 - 0.0 - - 10 - - - -
20/08:30pm 7.8 W 2 4 1028.1 - 0.0 - - 10 - - - -
20/08:00pm 8.8 WSW 4 4 1027.8 - 0.0 - Partly cloudy 10 - - - -
20/07:30pm 9.7 W 3 4 1027.6 - 0.0 - Partly cloudy 10 - - - -
20/07:00pm 11.0 WSW 3 5 1027.3 - 0.0 - Cloudy 10 - - - -
20/06:30pm 11.7 WSW 4 6 1027.0 - 0.0 - Cloudy 10 - - - -
20/06:00pm 12.0 SW 4 5 1026.6 - 0.0 - Mostly cloudy 10 - - - -
20/05:30pm 12.8 S 7 9 1026.2 - 0.0 - - 10 - - - -
20/05:00pm 13.8 S 9 12 1025.9 - 0.0 - - 10 - - - -
20/04:30pm 14.5 SSE 10 15 1025.7 - 0.0 - - 10 - - - -
20/04:00pm 14.9 SSE 10 13 1025.4 - 0.0 - - 10 - - - -
20/03:30pm 15.2 SSE 10 15 1025.2 - 0.0 - - 10 - - - -
20/03:00pm 15.5 SSE 11 15 1025.0 - 0.0 - - 10 - - - -
20/02:30pm 15.3 SSE 12 16 1024.8 - 0.0 - - 10 - - - -
20/02:00pm 15.7 SSE 11 14 1024.8 - 0.0 - - 10 - - - -
20/01:30pm 15.6 SSE 9 12 1024.8 - 0.0 - Partly cloudy 10 - - - -
20/01:00pm 15.3 SE 7 10 1024.9 - 0.0 - Partly cloudy 10 - - - -
20/12:30pm 16.4 S 7 12 1025.1 - 0.0 - - 10 - - - -
20/12:00pm 16.3 SW 9 13 1025.4 - 0.0 - - 10 - - - -
20/11:30am 15.9 SW 9 13 1025.7 - 0.0 - - 10 - - - -
20/11:00am 15.8 SSW 8 11 1026.0 - 0.0 - Partly cloudy 10 - - - -
20/10:30am 15.4 WSW 7 9 1026.1 - 0.0 - Partly cloudy 10 - - - -
20/10:00am 14.2 WSW 8 11 1026.1 - 0.0 - Partly cloudy 10 - - - -
20/09:30am 13.8 WSW 9 13 1026.1 - 0.0 - - 10 - - - -
20/09:00am 12.8 W 8 11 1026.1 - 0.8 - Mostly clear 10 - - - -
20/08:30am 11.7 WSW 8 12 1026.0 - 0.8 - Partly cloudy 10 - - - -
20/08:00am 10.7 WSW 7 11 1025.9 - 0.8 - - 10 - - - -
20/07:30am 9.7 SW 8 11 1025.5 - 0.8 - - 10 - - - -
20/07:00am 9.1 WSW 7 10 1025.3 - 0.8 - Partly cloudy 10 - - - -
20/06:30am 8.4 WSW 6 11 1024.8 - 0.8 - Partly cloudy 10 - - - -
20/06:00am 7.9 SW 5 6 1024.4 - 0.8 - - 10 - - - -
20/05:30am 8.5 WSW 6 8 1024.0 - 0.8 - Partly cloudy 10 - - - -
20/05:00am 8.7 WSW 5 7 1023.9 - 0.8 - Partly cloudy 10 - - - -
20/04:30am 9.3 WSW 5 6 1023.8 - 0.8 - Partly cloudy 10 - - - -
20/04:00am 9.7 WSW 4 6 1023.5 - 0.8 - Cloudy 10 - - - -
20/03:30am 9.5 WSW 4 5 1023.4 - 0.8 - Partly cloudy 10 - - - -
20/03:00am 9.8 SW 4 5 1023.4 - 0.8 - Cloudy 10 - - - -
20/02:30am 9.6 WSW 4 5 1023.3 - 0.8 - Cloudy 10 - - - -
20/02:00am 10.0 SW 4 6 1023.3 - 0.8 - Cloudy 10 - - - -
20/01:30am 10.3 SW 5 7 1023.3 - 0.8 - Partly cloudy 10 - - - -
20/01:00am 10.7 SW 6 8 1023.4 - 0.8 - Partly cloudy 10 - - - -
20/12:30am 10.8 SW 5 6 1023.4 - 0.8 - Cloudy 10 - - - -
20/12:00am 11.0 SW 5 6 1023.4 - 0.8 - Cloudy 10 - - - -
 
Date/Time
EST
Temp

°C
Wind Pressure Rain
since 9am
mm
Weather Cloud Vis
km
Sea
Height
m
Swell
Dir
 
Speed
knots
Gust
knots
hPa Trend Height
m
Period
s
Dir
19/11:30pm 11.4 WSW 5 8 1023.2 - 0.8 - Cloudy 10 - - - -
19/11:00pm 11.7 WSW 7 10 1023.2 - 0.8 - Cloudy 10 - - - -
19/10:30pm 11.7 WSW 6 10 1023.1 - 0.8 - Cloudy 10 - - - -
19/10:00pm 11.9 WSW 7 11 1023.2 - 0.8 - Cloudy 10 - - - -
19/09:30pm 12.5 SW 9 16 1023.4 - 0.8 - Cloudy 10 - - - -
19/09:00pm 12.4 SSW 11 16 1023.5 - 0.8 - Mostly cloudy 10 - - - -
19/08:30pm 12.3 SW 10 15 1023.3 - 0.8 - Partly cloudy 10 - - - -
19/08:00pm 12.2 SSW 10 14 1023.0 - 0.8 - Partly cloudy 10 - - - -
19/07:30pm 12.6 SSW 9 15 1022.7 - 0.8 - Partly cloudy 10 - - - -
19/07:00pm 12.8 S 11 16 1022.3 - 0.8 - Partly cloudy 10 - - - -
19/06:30pm 12.8 S 11 16 1022.0 - 0.8 - Partly cloudy 10 - - - -
19/06:00pm 12.8 S 14 18 1021.5 - 0.8 - - 10 - - - -
19/05:30pm 13.3 S 16 23 1021.0 - 0.8 - - 10 - - - -
19/05:00pm 13.5 S 16 26 1020.4 - 0.8 - - 10 - - - -
19/04:37pm 14.0 S 16 26 1020.1 - 0.8 - - 10 - - - -
19/04:30pm 14.0 S 17 26 1020.0 - 0.8 - - 10 - - - -
19/04:23pm 14.2 S 17 27 1020.0 - 0.8 - - 10 - - - -
19/04:00pm 14.4 S 17 24 1019.7 - 0.8 - - 10 - - - -
19/03:33pm 15.0 S 16 26 1019.3 - 0.8 - - 10 - - - -
19/03:30pm 15.2 S 16 25 1019.3 - 0.8 - - 10 - - - -
19/03:13pm 14.9 S 18 29 1019.1 - 0.8 - - 10 - - - -
19/03:00pm 15.0 S 17 24 1019.1 - 0.8 - - 10 - - - -
19/02:30pm 15.1 S 14 19 1018.8 - 0.8 - Partly cloudy 10 - - - -
19/02:00pm 16.1 S 12 17 1018.5 - 0.8 - Partly cloudy 10 - - - -
19/01:30pm 16.8 S 13 21 1018.4 - 0.8 - Partly cloudy 10 - - - -
19/01:00pm 15.5 S 13 19 1018.4 - 0.8 - Partly cloudy 10 - - - -
19/12:30pm 15.1 S 10 16 1018.7 - 0.8 - Partly cloudy 10 - - - -
19/12:00pm 14.2 S 7 9 1018.9 - 0.8 Recent precip. Cloudy 10 - - - -
19/11:30am 13.2 SSW 12 17 1019.2 - 0.8 - Partly cloudy 10 - - - -
19/11:18am 12.6 SSW 13 19 1019.5 - 0.8 - Partly cloudy 9 - - - -
19/11:16am 12.7 SSW 15 25 1019.5 - 0.8 - Partly cloudy 7 - - - -
19/11:08am 12.7 S 16 25 1019.5 - 0.6 - Partly cloudy 5 - - - -
19/11:00am 13.6 SSW 13 20 1019.5 - 0.6 - Partly cloudy 10 - - - -
19/10:30am 14.1 SSW 13 19 1019.2 - 0.4 - Partly cloudy 10 - - - -
19/10:00am 13.8 SSW 15 22 1019.0 - 0.4 - Partly cloudy 10 - - - -
19/09:30am 13.9 SW 11 15 1019.0 - 0.4 - Partly cloudy 10 - - - -
19/09:01am 13.7 SW 15 25 1018.6 - 0.0 - Partly cloudy 10 - - - -
19/09:00am 13.7 SW 14 21 1018.6 - 33.4 - Mostly cloudy 10 - - - -
19/08:30am 12.6 SW 12 17 1018.6 - 33.4 - Partly cloudy 10 - - - -
19/08:00am 11.7 SW 12 15 1018.3 - 33.4 - Partly cloudy 10 - - - -
19/07:30am 12.1 SW 13 18 1017.8 - 32.8 - Partly cloudy 10 - - - -
19/07:00am 11.8 SW 13 18 1017.3 - 32.8 - Partly cloudy 10 - - - -
19/06:30am 11.4 SW 10 14 1017.1 - 32.6 - Partly cloudy 10 - - - -
19/06:00am 11.6 SW 11 15 1016.8 - 32.2 Recent precip. Cloudy 10 - - - -
19/05:30am 11.9 SW 12 16 1016.5 - 31.6 - Partly cloudy 10 - - - -
19/05:00am 12.0 SW 12 19 1016.4 - 31.6 - Partly cloudy 10 - - - -
19/04:30am 12.1 SW 12 16 1016.3 - 31.6 - Partly cloudy 10 - - - -
19/04:00am 12.6 SW 13 19 1016.0 - 31.6 - - 10 - - - -
19/03:30am 12.3 SW 12 17 1015.8 - 31.6 - - 10 - - - -
19/03:00am 12.3 SW 13 16 1015.7 - 31.6 - Mostly cloudy 10 - - - -
19/02:30am 12.3 SW 13 18 1015.6 - 31.6 - Partly cloudy 10 - - - -
19/02:00am 12.2 SW 13 17 1015.6 - 31.6 - Partly cloudy 10 - - - -
19/01:30am 12.1 SW 14 19 1015.2 - 31.6 - Partly cloudy 10 - - - -
19/01:00am 12.2 SW 13 19 1015.3 - 31.6 - Partly cloudy 10 - - - -
19/12:30am 12.1 SW 11 16 1015.4 - 31.6 - Partly cloudy 10 - - - -
19/12:00am 12.0 SW 12 17 1015.0 - 31.6 Recent precip. Cloudy 10 - - - -
 
Date/Time
EST
Temp

°C
Wind Pressure Rain
since 9am
mm
Weather Cloud Vis
km
Sea
Height
m
Swell
Dir
 
Speed
knots
Gust
knots
hPa Trend Height
m
Period
s
Dir
18/11:30pm 11.7 SW 12 16 1015.0 - 31.6 - Partly cloudy 10 - - - -
18/11:00pm 11.3 SW 11 14 1015.0 - 31.4 - Partly cloudy 9 - - - -
18/10:36pm 11.5 SSW 13 19 1015.3 - 30.6 - Partly cloudy 9 - - - -
18/10:30pm 11.6 SSW 15 25 1015.3 - 30.0 - Partly cloudy 7 - - - -
18/10:21pm 12.0 S 23 29 1015.4 - 29.4 - Partly cloudy 5 - - - -
18/10:00pm 11.9 S 12 16 1015.1 - 24.0 - Partly cloudy 3 - - - -
18/09:40pm 11.4 SW 10 14 1014.7 - 17.8 - Partly cloudy 5 - - - -
18/09:30pm 11.4 SW 11 15 1014.4 - 16.6 - Partly cloudy 10 - - - -
18/09:00pm 11.4 SW 13 18 1014.5 - 16.4 Rain Mostly cloudy 10 - - - -
18/08:35pm 11.3 SSW 13 17 1014.6 - 15.6 - Partly cloudy 6 - - - -
18/08:30pm 11.2 SW 12 19 1014.6 - 15.2 - Partly cloudy 6 - - - -
18/08:15pm 11.5 SW 13 18 1014.5 - 14.0 - Partly cloudy 5 - - - -
18/08:00pm 11.6 SW 13 17 1014.0 - 12.4 - Partly cloudy 7 - - - -
18/07:30pm 11.6 SW 13 17 1013.7 - 11.2 - Partly cloudy 10 - - - -
18/07:00pm 11.8 SSW 13 19 1013.7 - 10.4 - Partly cloudy 10 - - - -
18/06:30pm 11.8 SW 14 18 1013.4 - 9.6 - Partly cloudy 8 - - - -
18/06:00pm 11.9 SSW 13 16 1013.1 - 8.2 Recent precip. Cloudy 10 - - - -
18/05:39pm 12.1 SSW 13 19 1012.9 - 8.0 - Partly cloudy 10 - - - -
18/05:30pm 12.2 SSW 14 21 1012.8 - 8.0 - Partly cloudy 6 - - - -
18/05:29pm 12.2 SSW 14 21 1012.8 - 7.8 - Partly cloudy 5 - - - -
18/05:01pm 12.5 SSW 12 19 1012.4 - 6.8 - Partly cloudy 9 - - - -
18/05:00pm 12.5 SSW 12 19 1012.4 - 6.8 - Partly cloudy 9 - - - -
18/04:43pm 12.6 S 16 21 1012.4 - 6.4 - Partly cloudy 5 - - - -
18/04:30pm 12.8 S 15 21 1011.9 - 5.2 - Partly cloudy 7 - - - -
18/04:19pm 12.9 S 15 25 1011.7 - 4.8 - Partly cloudy 9 - - - -

Other Formats:

Comma delimited format used in spreadsheet applications
http://www.bom.gov.au/fwo/IDN60701/IDN60701.95937.axf

JavaScript Object Notation format (JSON) in row-major order
http://www.bom.gov.au/fwo/IDN60701/IDN60701.95937.json